Latest Weather Observations for St Helens

IDT60801

Issued at 7:03 pm EDT Thursday 5 March 2015 (issued every 30 minutes, with the page automatically refreshed every 10 minutes)

About weather observations | Map of weather stations | Latest weather observations for TAS | Other Formats
Station Details ID: 092120 Name: ST HELENS AERODROME Lat: -41.34 Lon: 148.28 Height: 48.0 m
Data from the previous 72 hours. | See also: Recent months at St Helens
Date/Time
EDT
Temp
°C
App
Temp
°C
Dew
Point
Rel
Hum
%
Delta-T
°C
Wind Press
QNH
hPa
Press
MSL
hPa
Rain
since 9 am
mm
Dir
 
Spd
km/h
Gust
km/h
Spd
kts
Gust
kts
05/07:00pm 15.8 11.4 2.6 41 6.0 W 15 32 8 17 1003.4 - 0.0
05/06:30pm 16.3 11.0 3.0 41 6.1 WNW 20 43 11 23 1003.5 - 0.0
05/06:00pm 17.4 11.7 0.6 32 7.4 W 20 41 11 22 1003.6 1003.6 0.0
05/05:30pm 18.2 13.0 0.4 30 7.9 WSW 17 32 9 17 1003.6 - 0.0
05/05:00pm 19.1 14.0 0.7 29 8.2 WSW 17 26 9 14 1003.8 - 0.0
05/04:30pm 19.1 14.2 -0.8 26 8.6 WSW 15 30 8 16 1004.0 - 0.0
05/04:00pm 18.0 13.6 -2.3 25 8.5 W 11 19 6 10 1004.5 - 0.0
05/03:30pm 19.5 13.7 0.0 27 8.6 SW 20 37 11 20 1004.9 - 0.0
05/03:00pm 18.9 13.9 -1.5 25 8.7 W 15 30 8 16 1005.5 1005.5 0.0
05/02:30pm 18.4 13.2 0.1 29 8.0 WSW 17 39 9 21 1006.0 - 0.0
05/02:00pm 18.5 13.5 1.1 31 7.8 WSW 17 24 9 13 1006.1 - 0.0
05/01:30pm 18.5 13.1 1.5 32 7.7 WSW 19 32 10 17 1006.2 - 0.0
05/01:00pm 16.8 11.0 -0.4 31 7.4 SW 20 35 11 19 1006.4 - 0.0
05/12:30pm 16.0 10.0 -1.5 30 7.3 SW 20 41 11 22 1006.4 - 0.0
05/12:00pm 15.9 10.3 1.2 37 6.5 SSW 20 39 11 21 1006.7 1006.7 0.0
05/11:31am 14.7 7.2 -1.4 33 6.6 SW 28 46 15 25 1006.4 - 0.0
05/11:30am 14.6 7.1 -1.5 33 6.6 SW 28 43 15 23 1006.3 - 0.0
05/11:00am 13.9 5.2 -0.2 38 5.9 SW 35 59 19 32 1006.0 - 0.0
05/10:30am 13.3 5.1 0.3 41 5.5 SW 33 65 18 35 1005.6 - 0.0
05/10:00am 13.1 5.5 0.8 43 5.2 SW 30 54 16 29 1005.3 - 0.0
05/09:30am 12.5 5.4 1.2 46 4.8 SSW 28 54 15 29 1004.8 - 0.0
05/09:16am 12.2 5.1 1.2 47 4.7 SSW 28 59 15 32 1004.4 - 0.0
05/09:00am 12.3 6.4 1.9 49 4.5 SW 22 41 12 22 1004.2 1004.2 0.8
05/08:30am 11.6 5.4 2.1 52 4.1 SSW 24 44 13 24 1003.5 - 0.8
05/08:00am 10.9 4.6 1.7 53 3.9 SW 24 41 13 22 1002.6 - 0.8
05/07:30am 10.4 5.5 2.0 56 3.6 SW 17 30 9 16 1001.8 - 0.8
05/07:00am 10.1 6.6 3.6 64 2.8 SW 11 28 6 15 1000.7 - 0.8
05/06:30am 10.2 5.2 3.7 64 2.9 SW 19 33 10 18 999.5 - 0.8
05/06:00am 9.4 3.6 4.4 71 2.2 SW 24 52 13 28 998.7 998.7 0.8
05/05:52am 9.3 2.6 5.5 77 1.7 SW 30 52 16 28 998.7 - 0.8
05/05:37am 9.7 3.1 6.1 78 1.7 SW 30 56 16 30 999.0 - 0.6
05/05:31am 10.5 3.4 5.5 71 2.3 SW 32 56 17 30 998.7 - 0.0
05/05:30am 10.8 3.7 5.6 70 2.4 SW 32 48 17 26 998.7 - 0.0
05/05:29am 11.0 3.7 5.3 68 2.6 SW 33 46 18 25 998.5 - 0.0
05/05:00am 13.0 9.5 5.4 60 3.6 WSW 13 28 7 15 997.1 - 0.0
05/04:30am 12.9 9.9 6.0 63 3.3 WSW 11 19 6 10 996.4 - 0.0
05/04:00am 12.9 10.4 6.7 66 3.0 WSW 9 15 5 8 996.4 - 0.0
05/03:30am 13.0 10.8 7.9 71 2.5 W 9 17 5 9 996.0 - 0.0
05/03:00am 13.8 11.4 8.6 71 2.6 WNW 11 24 6 13 996.2 996.1 0.0
05/02:30am 13.8 11.3 9.8 77 2.1 NW 13 19 7 10 996.6 - 0.0
05/02:00am 13.9 11.8 9.9 77 2.1 WNW 11 22 6 12 996.8 - 0.0
05/01:30am 14.9 12.7 9.5 70 2.8 W 11 24 6 13 997.5 - 0.0
05/01:00am 15.5 12.5 9.2 66 3.2 W 15 32 8 17 997.3 - 0.0
05/12:30am 15.7 12.7 9.4 66 3.3 W 15 26 8 14 997.3 - 0.0
05/12:00am 16.2 12.9 9.6 65 3.5 WNW 17 30 9 16 997.6 997.6 0.0
 
Date/Time
EDT
Temp
°C
App
Temp
°C
Dew
Point
Rel
Hum
%
Delta-T
°C
Wind Press
QNH
hPa
Press
MSL
hPa
Rain
since 9 am
mm
Dir
 
Spd
km/h
Gust
km/h
Spd
kts
Gust
kts
04/11:30pm 16.2 14.0 10.7 70 2.9 WNW 13 20 7 11 998.5 - 0.0
04/11:00pm 16.5 13.2 10.8 69 3.0 WNW 19 32 10 17 998.8 - 0.0
04/10:30pm 16.4 12.4 10.5 68 3.1 WNW 22 39 12 21 999.6 - 0.0
04/10:00pm 17.0 14.2 9.9 63 3.7 W 15 35 8 19 1000.0 - 0.0
04/09:30pm 17.2 13.9 9.4 60 4.1 W 17 39 9 21 1000.3 - 0.0
04/09:00pm 17.4 13.7 9.6 60 4.1 WNW 19 41 10 22 1000.2 1000.2 0.0
04/08:30pm 17.6 14.2 10.7 64 3.7 WNW 19 35 10 19 1000.2 - 0.0
04/08:00pm 17.9 14.7 10.0 60 4.2 W 17 35 9 19 1000.3 - 0.0
04/07:30pm 18.1 14.7 10.5 61 4.1 WSW 19 50 10 27 1000.6 - 0.0
04/07:00pm 18.5 15.1 11.1 62 4.0 W 20 35 11 19 1001.0 - 0.0
04/06:30pm 18.7 15.2 11.0 61 4.2 W 20 43 11 23 1001.2 - 0.0
04/06:00pm 18.8 15.4 11.1 61 4.2 W 20 41 11 22 1001.0 1001.0 0.0
04/05:30pm 19.1 15.1 10.6 58 4.6 W 22 44 12 24 1001.3 - 0.0
04/05:00pm 20.0 16.2 11.2 57 4.8 W 22 54 12 29 1001.1 - 0.0
04/04:30pm 20.4 16.6 11.1 55 5.1 W 22 44 12 24 1001.3 - 0.0
04/04:00pm 20.7 15.7 11.1 54 5.3 W 28 54 15 29 1001.5 - 0.0
04/03:59pm 20.7 15.7 10.8 53 5.4 W 28 54 15 29 1001.5 - 0.0
04/03:30pm 21.0 17.2 11.1 53 5.5 WNW 22 44 12 24 1002.4 - 0.0
04/03:00pm 21.2 16.9 10.7 51 5.8 W 24 50 13 27 1002.7 1002.7 0.0
04/02:30pm 21.6 18.2 10.4 49 6.1 W 19 46 10 25 1003.2 - 0.0
04/02:00pm 21.3 16.9 10.5 50 5.9 WNW 24 46 13 25 1003.1 - 0.0
04/01:30pm 21.1 17.8 9.7 48 6.1 W 17 37 9 20 1003.8 - 0.0
04/01:00pm 21.1 17.2 8.7 45 6.5 W 19 39 10 21 1004.2 - 0.0
04/12:30pm 20.9 17.2 9.5 48 6.1 W 19 33 10 18 1004.6 - 0.0
04/12:00pm 20.2 16.5 9.5 50 5.7 W 19 37 10 20 1005.2 1005.2 0.0
04/11:30am 19.7 15.8 9.3 51 5.5 W 20 39 11 21 1005.7 - 0.0
04/11:00am 19.0 15.0 9.2 53 5.2 W 20 41 11 22 1006.2 - 0.0
04/10:30am 18.6 14.5 8.8 53 5.1 W 20 46 11 25 1006.4 - 0.0
04/10:00am 17.8 13.8 8.9 56 4.6 W 20 39 11 21 1006.7 - 0.0
04/09:30am 17.2 13.2 8.9 58 4.3 W 20 43 11 23 1006.7 - 0.0
04/09:00am 16.3 11.5 8.8 61 3.9 W 24 41 13 22 1007.3 1007.3 0.0
04/08:30am 15.8 11.9 8.5 62 3.7 WNW 19 37 10 20 1007.2 - 0.0
04/08:00am 15.9 12.6 7.9 59 4.0 WNW 15 32 8 17 1007.5 - 0.0
04/07:30am 15.4 11.6 7.4 59 4.0 W 17 30 9 16 1007.7 - 0.0
04/07:00am 14.9 10.9 6.5 57 4.1 WNW 17 33 9 18 1007.4 - 0.0
04/06:30am 14.3 10.5 5.7 56 4.1 WNW 15 33 8 18 1007.4 - 0.0
04/06:00am 14.2 10.5 6.1 58 3.9 W 15 26 8 14 1007.6 1007.6 0.0
04/05:30am 14.5 9.0 5.8 56 4.2 NW 24 39 13 21 1007.7 - 0.0
04/05:00am 14.6 10.1 5.9 56 4.2 WNW 19 32 10 17 1008.0 - 0.0
04/04:30am 14.7 10.0 5.2 53 4.5 WNW 19 33 10 18 1008.2 - 0.0
04/04:00am 14.8 10.1 5.9 55 4.3 WNW 20 37 11 20 1008.6 - 0.0
04/03:30am 14.6 10.5 6.2 57 4.0 WNW 17 33 9 18 1008.8 - 0.0
04/03:00am 14.5 10.6 7.1 61 3.6 NW 17 28 9 15 1009.1 1009.0 0.0
04/02:30am 14.5 10.5 6.8 60 3.8 NW 17 30 9 16 1009.6 - 0.0
04/02:00am 14.0 10.6 5.9 58 3.9 WNW 13 20 7 11 1010.1 - 0.0
04/01:30am 13.9 10.8 5.5 57 4.0 NW 11 19 6 10 1010.5 - 0.0
04/01:00am 14.1 11.0 5.5 56 4.1 W 11 20 6 11 1010.8 - 0.0
04/12:30am 14.4 11.0 6.0 57 4.0 WNW 13 24 7 13 1010.8 - 0.0
04/12:00am 14.3 11.9 7.1 62 3.5 NW 9 15 5 8 1011.0 1010.9 0.0
 
Date/Time
EDT
Temp
°C
App
Temp
°C
Dew
Point
Rel
Hum
%
Delta-T
°C
Wind Press
QNH
hPa
Press
MSL
hPa
Rain
since 9 am
mm
Dir
 
Spd
km/h
Gust
km/h
Spd
kts
Gust
kts
03/11:30pm 14.7 12.4 7.3 61 3.6 WNW 9 15 5 8 1011.1 - 0.0
03/11:00pm 15.4 11.7 7.9 61 3.8 WNW 17 28 9 15 1011.2 - 0.0
03/10:30pm 15.5 12.1 7.8 60 3.9 WNW 15 26 8 14 1011.3 - 0.0
03/10:00pm 15.8 11.7 7.8 59 4.0 WNW 19 33 10 18 1011.4 - 0.0
03/09:30pm 16.2 12.5 7.9 58 4.2 W 17 33 9 18 1011.4 - 0.0
03/09:00pm 16.3 13.1 8.5 60 4.0 W 15 26 8 14 1011.1 1011.0 0.0
03/08:30pm 16.6 13.9 9.1 61 3.9 W 13 28 7 15 1011.1 - 0.0
03/08:00pm 16.9 13.5 9.3 61 4.0 WNW 17 30 9 16 1011.1 - 0.0
03/07:30pm 17.6 14.3 9.5 59 4.3 WNW 17 28 9 15 1011.0 - 0.0
03/07:00pm 18.6 15.3 9.4 55 4.9 WNW 17 33 9 18 1011.0 - 0.0
03/06:30pm 19.4 15.5 9.6 53 5.2 NW 20 35 11 19 1010.9 - 0.0
03/06:00pm 19.9 16.6 9.5 51 5.5 WNW 17 35 9 19 1010.9 1010.8 0.0
03/05:30pm 19.7 17.3 9.9 53 5.2 W 13 32 7 17 1011.0 - 0.0
03/05:00pm 19.6 18.5 11.9 61 4.3 SSW 9 15 5 8 1011.1 - 0.0
03/04:30pm 20.6 19.1 11.8 57 4.9 SW 11 17 6 9 1011.2 - 0.0
03/04:00pm 21.3 20.3 11.1 52 5.6 S 7 13 4 7 1011.4 - 0.0
03/03:30pm 20.5 17.1 10.6 53 5.4 E 19 26 10 14 1011.8 - 0.0
03/03:00pm 19.7 16.4 11.5 59 4.5 E 20 33 11 18 1012.5 1012.4 0.0
03/02:30pm 20.4 15.2 9.0 48 6.0 E 26 33 14 18 1013.0 - 0.0
03/02:00pm 20.6 15.6 9.5 49 5.9 ENE 26 35 14 19 1013.2 - 0.0
03/01:30pm 20.3 15.8 8.6 47 6.1 ENE 22 28 12 15 1013.5 - 0.0
03/01:00pm 20.6 16.0 6.5 40 7.1 ENE 20 26 11 14 1013.9 - 0.0
03/12:30pm 19.6 15.3 7.7 46 6.1 ENE 20 26 11 14 1014.0 - 0.0
03/12:00pm 20.3 17.9 7.0 42 6.8 NNE 9 19 5 10 1014.4 1014.3 0.0
03/11:30am 19.2 17.0 6.0 42 6.5 N 7 11 4 6 1014.7 - 0.0
03/11:00am 18.5 16.5 7.3 48 5.7 NNW 7 11 4 6 1014.9 - 0.0
03/10:30am 17.2 15.6 8.9 58 4.3 NW 7 11 4 6 1014.9 - 0.0
03/10:00am 15.9 14.0 8.9 63 3.6 NNW 9 13 5 7 1014.8 - 0.0
03/09:30am 14.3 12.4 8.9 70 2.7 NNW 9 13 5 7 1014.9 - 0.0
03/09:00am 12.8 10.8 8.7 76 2.1 NNW 9 13 5 7 1014.9 1014.9 0.0
03/08:30am 11.8 9.4 8.5 80 1.6 N 11 13 6 7 1014.9 - 0.0
03/08:00am 10.5 8.4 8.3 86 1.1 NNW 9 13 5 7 1014.6 - 0.0
03/07:30am 10.4 8.3 8.2 86 1.1 NNW 9 15 5 8 1014.0 - 0.0
03/07:00am 10.6 8.6 8.5 87 1.0 NNW 9 15 5 8 1013.8 - 0.0
03/06:30am 10.3 7.8 8.4 88 0.9 NNW 11 17 6 9 1013.2 - 0.0
03/06:00am 10.7 8.3 8.5 86 1.1 NNW 11 13 6 7 1013.1 1013.0 0.0
03/05:30am 11.2 9.4 9.3 88 1.0 NNW 9 11 5 6 1013.0 - 0.0
03/05:00am 11.4 10.6 8.1 80 1.6 NNW 2 11 1 6 1012.7 - 0.0
03/04:30am 12.1 11.6 7.8 75 2.1 CALM 0 0 0 0 1012.5 - 0.0
03/04:00am 12.5 12.1 8.4 76 2.0 CALM 0 6 0 3 1012.5 - 0.0
03/03:30am 13.5 11.9 8.8 73 2.4 W 7 17 4 9 1012.3 - 0.0
03/03:00am 14.1 12.8 9.1 72 2.5 NNW 6 11 3 6 1012.7 1012.6 0.0
03/02:30am 14.3 12.0 9.1 71 2.7 WNW 11 19 6 10 1012.8 - 0.0
03/02:00am 14.3 12.8 9.3 72 2.6 W 7 15 4 8 1013.2 - 0.0
03/01:30am 14.7 11.8 9.7 72 2.6 WNW 15 24 8 13 1013.3 - 0.0
03/01:00am 14.9 12.0 9.7 71 2.7 NW 15 24 8 13 1013.6 - 0.0
03/12:30am 15.0 12.1 9.6 70 2.8 NW 15 20 8 11 1014.2 - 0.0
03/12:00am 15.4 12.5 9.7 69 3.0 NW 15 22 8 12 1014.6 1014.6 0.0
 
Date/Time
EDT
Temp
°C
App
Temp
°C
Dew
Point
Rel
Hum
%
Delta-T
°C
Wind Press
QNH
hPa
Press
MSL
hPa
Rain
since 9 am
mm
Dir
 
Spd
km/h
Gust
km/h
Spd
kts
Gust
kts
02/11:30pm 15.2 13.4 9.6 69 2.9 WNW 9 13 5 7 1014.5 - 0.0
02/11:00pm 15.3 12.5 9.9 70 2.8 NW 15 28 8 15 1014.2 - 0.0
02/10:30pm 15.6 12.0 9.7 68 3.1 WNW 19 30 10 16 1014.3 - 0.0
02/10:00pm 15.5 13.9 8.7 64 3.5 WNW 7 11 4 6 1014.6 - 0.0
02/09:30pm 15.7 13.3 8.7 63 3.6 NW 11 17 6 9 1014.4 - 0.0
02/09:00pm 16.2 12.2 8.2 59 4.1 N 19 24 10 13 1014.0 1013.9 0.0
02/08:30pm 16.5 12.4 8.5 59 4.1 NNW 20 32 11 17 1014.0 - 0.0
02/08:00pm 16.6 12.4 8.3 58 4.2 NNW 20 37 11 20 1013.6 - 0.0
02/07:30pm 17.0 13.0 8.4 57 4.4 NNW 19 28 10 15 1013.6 - 0.0

Other Formats:

Comma delimited format used in spreadsheet applications
http://www.bom.gov.au/fwo/IDT60801/IDT60801.95981.axf

JavaScript Object Notation format (JSON) in row-major order
http://www.bom.gov.au/fwo/IDT60801/IDT60801.95981.json